createdAt,value
2019-05-07T00:00:22.061Z,0
2019-05-07T00:01:23.295Z,0
2019-05-07T00:02:22.914Z,0
2019-05-07T00:03:23.615Z,0
2019-05-07T00:04:24.306Z,0
2019-05-07T00:05:25.000Z,0
2019-05-07T00:06:25.736Z,0
2019-05-07T00:07:26.401Z,0
2019-05-07T00:08:27.093Z,0
2019-05-07T00:09:27.897Z,0
2019-05-07T00:10:28.622Z,0
2019-05-07T00:11:29.495Z,0
2019-05-07T00:12:32.146Z,0
2019-05-07T00:13:33.135Z,0
2019-05-07T00:14:31.995Z,0
2019-05-07T00:15:32.869Z,0
2019-05-07T00:16:32.972Z,0
2019-05-07T00:17:33.665Z,0
2019-05-07T00:18:34.407Z,0
2019-05-07T00:19:35.101Z,0
2019-05-07T00:21:52.832Z,0
2019-05-07T00:22:53.354Z,0
2019-05-07T00:23:52.792Z,0
2019-05-07T00:26:08.880Z,0
2019-05-07T00:27:09.577Z,0
2019-05-07T00:28:12.229Z,0
2019-05-07T00:30:26.449Z,0
2019-05-07T00:31:27.146Z,0
2019-05-07T00:33:43.529Z,0
2019-05-07T00:34:43.997Z,0
2019-05-07T00:35:44.691Z,0
2019-05-07T00:36:45.705Z,0
2019-05-07T00:37:46.304Z,0
2019-05-07T00:38:47.011Z,0
2019-05-07T00:39:47.719Z,0
2019-05-07T00:40:48.411Z,0
2019-05-07T00:43:04.786Z,0
2019-05-07T00:44:05.567Z,0
2019-05-07T00:45:17.053Z,0
2019-05-07T00:46:07.818Z,0
2019-05-07T00:47:08.511Z,0
2019-05-07T00:49:24.761Z,0
2019-05-07T00:50:25.454Z,0
2019-05-07T00:51:26.198Z,0
2019-05-07T00:52:26.896Z,0
2019-05-07T00:53:27.645Z,0
2019-05-07T00:54:28.353Z,0
2019-05-07T00:55:29.044Z,0
2019-05-07T00:56:29.740Z,0
2019-05-07T00:57:32.399Z,0
2019-05-07T00:58:32.106Z,0
2019-05-07T01:00:47.512Z,0
2019-05-07T01:01:48.209Z,0
2019-05-07T01:02:48.902Z,0
2019-05-07T01:03:49.578Z,0
2019-05-07T01:04:50.319Z,0
2019-05-07T01:08:22.683Z,0
2019-05-07T01:10:38.176Z,0
2019-05-07T01:11:38.876Z,0
2019-05-07T01:12:39.590Z,0
2019-05-07T01:13:40.268Z,0
2019-05-07T01:14:41.964Z,0
2019-05-07T01:15:43.008Z,0
2019-05-07T01:16:42.344Z,0
2019-05-07T01:17:43.037Z,0
2019-05-07T01:19:59.209Z,0
2019-05-07T01:21:02.282Z,0
2019-05-07T01:22:03.014Z,0
2019-05-07T01:23:02.643Z,0
2019-05-07T01:24:03.197Z,0
2019-05-07T01:25:02.686Z,0
2019-05-07T01:26:03.381Z,0
2019-05-07T01:27:04.060Z,0
2019-05-07T01:28:04.753Z,0
2019-05-07T01:30:23.056Z,0
2019-05-07T01:31:22.203Z,0
2019-05-07T01:32:22.350Z,0
2019-05-07T01:33:23.042Z,0
2019-05-07T01:34:23.737Z,0
2019-05-07T01:35:24.429Z,0
2019-05-07T01:36:25.583Z,0
2019-05-07T01:38:42.716Z,0
2019-05-07T01:39:42.430Z,0
2019-05-07T01:40:43.123Z,0
2019-05-07T01:41:43.821Z,0
2019-05-07T01:42:44.512Z,0
2019-05-07T01:43:45.208Z,0
2019-05-07T01:44:45.900Z,0
2019-05-07T01:45:49.827Z,0
2019-05-07T01:46:47.284Z,0
2019-05-07T01:49:03.455Z,0
2019-05-07T01:50:04.151Z,0
2019-05-07T01:51:04.845Z,0
2019-05-07T01:52:05.540Z,0
2019-05-07T01:53:06.233Z,0
2019-05-07T01:54:06.928Z,0
2019-05-07T01:55:07.623Z,0
2019-05-07T01:56:08.313Z,0
2019-05-07T01:57:09.007Z,0
2019-05-07T01:59:25.244Z,0
2019-05-07T02:00:25.943Z,0
2019-05-07T02:01:26.638Z,0
2019-05-07T02:02:27.341Z,0
2019-05-07T02:03:28.028Z,0
2019-05-07T02:05:44.250Z,0
2019-05-07T02:06:44.980Z,0
2019-05-07T02:09:02.369Z,0
2019-05-07T02:11:17.295Z,0
2019-05-07T02:12:17.982Z,0
2019-05-07T02:13:18.691Z,0
2019-05-07T02:14:19.393Z,0
2019-05-07T02:15:20.080Z,0
2019-05-07T02:16:21.861Z,0
2019-05-07T02:17:22.806Z,0
2019-05-07T02:18:22.521Z,0
2019-05-07T02:20:38.692Z,0
2019-05-07T02:21:39.384Z,0
2019-05-07T02:22:40.077Z,0
2019-05-07T02:23:42.639Z,0
2019-05-07T02:24:43.433Z,0
2019-05-07T02:25:42.195Z,0
2019-05-07T02:26:42.911Z,0
2019-05-07T02:27:43.573Z,0
2019-05-07T02:29:59.736Z,0
2019-05-07T02:31:00.445Z,0
2019-05-07T02:32:04.171Z,0
2019-05-07T02:33:03.751Z,0
2019-05-07T02:34:02.944Z,0
2019-05-07T02:35:04.280Z,0
2019-05-07T02:36:04.400Z,0
2019-05-07T02:37:05.063Z,0
2019-05-07T02:38:05.754Z,0
2019-05-07T02:40:22.932Z,0
2019-05-07T02:41:23.364Z,0
2019-05-07T02:42:24.035Z,0
2019-05-07T02:43:24.049Z,0
2019-05-07T02:44:24.738Z,0
2019-05-07T02:45:25.433Z,0
2019-05-07T02:46:31.564Z,0
2019-05-07T02:47:26.814Z,0
2019-05-07T02:48:27.494Z,0
2019-05-07T02:49:28.163Z,0
2019-05-07T02:51:44.344Z,0
2019-05-07T02:52:45.014Z,0
2019-05-07T02:53:45.717Z,0
2019-05-07T02:54:46.407Z,0
2019-05-07T02:55:47.096Z,0
2019-05-07T02:56:47.787Z,0
2019-05-07T02:57:48.482Z,0
2019-05-07T02:58:49.171Z,0
2019-05-07T03:01:05.370Z,0
2019-05-07T03:02:05.986Z,0
2019-05-07T03:03:06.685Z,0
2019-05-07T03:04:07.404Z,0
2019-05-07T03:05:08.073Z,0
2019-05-07T03:08:39.726Z,0
2019-05-07T03:09:43.183Z,4
2019-05-07T03:10:43.418Z,4
2019-05-07T03:12:57.286Z,8
2019-05-07T03:13:57.972Z,4
2019-05-07T03:14:58.665Z,8
2019-05-07T03:15:59.416Z,8
2019-05-07T03:17:02.951Z,8
2019-05-07T03:18:03.483Z,12
2019-05-07T03:21:32.932Z,20
2019-05-07T03:22:33.944Z,20
2019-05-07T03:23:34.270Z,28
2019-05-07T03:24:34.641Z,28
2019-05-07T03:25:35.253Z,32
2019-05-07T03:27:53.539Z,48
2019-05-07T03:28:53.625Z,52
2019-05-07T03:29:53.611Z,60
2019-05-07T03:33:26.433Z,92
2019-05-07T03:34:26.101Z,104
2019-05-07T03:35:27.976Z,116
2019-05-07T03:36:27.525Z,128
2019-05-07T03:37:32.243Z,140
2019-05-07T03:38:28.923Z,156
2019-05-07T03:39:29.619Z,176
2019-05-07T03:40:32.801Z,192
2019-05-07T03:41:33.240Z,208
2019-05-07T03:42:33.545Z,232
2019-05-07T03:43:32.677Z,260
2019-05-07T03:44:33.846Z,280
2019-05-07T03:45:33.766Z,304
2019-05-07T03:46:34.447Z,332
2019-05-07T03:47:35.148Z,356
2019-05-07T03:48:35.849Z,392
2019-05-07T03:50:52.808Z,456
2019-05-07T03:51:53.053Z,508
2019-05-07T03:54:08.876Z,580
2019-05-07T03:56:25.044Z,652
2019-05-07T03:57:25.740Z,716
2019-05-07T03:58:26.431Z,744
2019-05-07T03:59:27.133Z,792
2019-05-07T04:00:27.831Z,840
2019-05-07T04:02:44.178Z,944
2019-05-07T04:03:45.084Z,976
2019-05-07T04:04:45.383Z,1024
2019-05-07T04:05:46.078Z,1076
2019-05-07T04:06:46.774Z,1136
2019-05-07T04:07:47.465Z,1168
2019-05-07T04:08:48.160Z,1228
2019-05-07T04:09:48.823Z,1312
2019-05-07T04:10:49.519Z,1372
2019-05-07T04:13:05.688Z,1560
2019-05-07T04:14:06.391Z,1624
2019-05-07T04:15:07.099Z,1664
2019-05-07T04:16:07.796Z,1828
2019-05-07T04:17:22.295Z,1928
2019-05-07T04:18:12.869Z,1968
2019-05-07T04:20:26.357Z,2072
2019-05-07T04:21:27.049Z,2136
2019-05-07T04:22:29.038Z,2208
2019-05-07T04:23:28.437Z,2212
2019-05-07T04:24:29.099Z,2240
2019-05-07T04:25:29.869Z,2292
2019-05-07T04:26:33.606Z,2248
2019-05-07T04:27:33.291Z,2256
2019-05-07T04:28:33.464Z,2340
2019-05-07T04:30:48.056Z,2292
2019-05-07T04:31:48.763Z,2344
2019-05-07T04:32:52.760Z,2380
2019-05-07T04:33:53.143Z,2456
2019-05-07T04:34:53.215Z,2616
2019-05-07T04:35:53.782Z,2840
2019-05-07T04:36:53.493Z,3032
2019-05-07T04:41:39.387Z,3324
2019-05-07T04:42:42.591Z,3556
2019-05-07T04:43:43.495Z,3472
2019-05-07T04:44:43.737Z,3284
2019-05-07T04:45:43.335Z,3392
2019-05-07T04:46:47.535Z,3600
2019-05-07T04:47:47.441Z,3648
2019-05-07T04:50:03.492Z,3776
2019-05-07T04:51:03.383Z,3832
2019-05-07T04:52:03.999Z,3832
2019-05-07T04:53:02.803Z,3964
2019-05-07T04:54:03.601Z,4296
2019-05-07T04:55:04.079Z,4440
2019-05-07T04:57:19.484Z,4448
2019-05-07T04:58:23.348Z,4516
2019-05-07T04:59:23.485Z,4536
2019-05-07T05:00:22.934Z,4256
2019-05-07T05:01:23.584Z,4740
2019-05-07T05:02:23.944Z,4816
2019-05-07T05:04:40.236Z,5080
2019-05-07T05:05:43.548Z,5380
2019-05-07T05:06:42.432Z,6340
2019-05-07T05:07:43.177Z,5768
2019-05-07T05:08:43.743Z,5264
2019-05-07T05:09:43.969Z,4952
2019-05-07T05:10:44.667Z,4920
2019-05-07T05:11:45.363Z,5380
2019-05-07T05:14:02.787Z,5360
2019-05-07T05:15:02.285Z,6100
2019-05-07T05:16:02.954Z,5504
2019-05-07T05:17:03.625Z,5496
2019-05-07T05:18:04.321Z,5632
2019-05-07T05:19:05.023Z,5960
2019-05-07T05:20:05.723Z,6232
2019-05-07T05:22:22.398Z,5568
2019-05-07T05:23:23.060Z,5416
2019-05-07T05:24:23.753Z,6204
2019-05-07T05:25:24.458Z,5884
2019-05-07T05:26:25.155Z,5988
2019-05-07T05:27:25.851Z,5928
2019-05-07T05:28:26.556Z,6100
2019-05-07T05:29:27.252Z,5932
2019-05-07T05:31:43.442Z,6856
2019-05-07T05:32:44.132Z,6876
2019-05-07T05:33:44.823Z,6344
2019-05-07T05:34:45.519Z,6064
2019-05-07T05:35:46.221Z,6164
2019-05-07T05:36:46.917Z,6568
2019-05-07T05:37:47.613Z,6724
2019-05-07T05:38:48.314Z,6820
2019-05-07T05:41:04.489Z,6352
2019-05-07T05:42:05.215Z,6644
2019-05-07T05:43:05.910Z,8032
2019-05-07T05:44:06.611Z,9380
2019-05-07T05:45:07.348Z,9100
2019-05-07T05:46:08.010Z,8548
2019-05-07T05:47:08.675Z,8440
2019-05-07T05:48:09.371Z,7732
2019-05-07T05:54:12.764Z,10400
2019-05-07T05:55:12.765Z,9920
2019-05-07T05:56:13.511Z,10036
2019-05-07T05:58:29.694Z,10876
2019-05-07T06:00:45.862Z,10876
2019-05-07T06:01:46.562Z,12108
2019-05-07T06:02:47.268Z,13664
2019-05-07T06:03:47.972Z,12272
2019-05-07T06:04:48.680Z,11976
2019-05-07T06:05:49.390Z,12112
2019-05-07T06:06:50.080Z,11864
2019-05-07T06:07:52.101Z,12352
2019-05-07T06:08:52.497Z,11004
2019-05-07T06:09:52.765Z,9496
2019-05-07T06:12:08.358Z,9292
2019-05-07T06:13:09.060Z,9684
2019-05-07T06:14:09.755Z,9792
2019-05-07T06:15:12.529Z,9440
2019-05-07T06:16:12.554Z,10056
2019-05-07T06:17:12.963Z,11600
2019-05-07T06:18:21.061Z,12816
2019-05-07T06:19:13.240Z,13712
2019-05-07T06:20:13.942Z,14004
2019-05-07T06:22:30.118Z,14884
2019-05-07T06:23:32.802Z,16632
2019-05-07T06:24:31.848Z,19584
2019-05-07T06:25:33.479Z,21440
2019-05-07T06:26:32.879Z,20864
2019-05-07T06:27:33.562Z,20096
2019-05-07T06:28:34.260Z,18656
2019-05-07T06:29:34.956Z,15568
2019-05-07T06:30:35.640Z,14028
2019-05-07T06:32:52.354Z,17348
2019-05-07T06:33:52.513Z,18688
2019-05-07T06:34:53.203Z,18304
2019-05-07T06:38:24.867Z,20992
2019-05-07T06:39:25.568Z,22304
2019-05-07T06:40:29.319Z,22784
2019-05-07T06:41:26.972Z,21824
2019-05-07T06:43:43.149Z,18816
2019-05-07T06:44:43.845Z,16308
2019-05-07T06:45:44.544Z,15792
2019-05-07T06:46:45.228Z,15476
2019-05-07T06:47:45.959Z,14620
2019-05-07T06:48:46.666Z,14828
2019-05-07T06:49:47.369Z,15976
2019-05-07T06:50:48.062Z,19552
2019-05-07T06:51:48.768Z,20032
2019-05-07T06:54:04.944Z,19008
2019-05-07T06:55:05.651Z,18176
2019-05-07T06:56:06.323Z,17208
2019-05-07T06:57:07.022Z,16556
2019-05-07T06:58:07.800Z,16776
2019-05-07T06:59:08.454Z,16064
2019-05-07T07:00:09.157Z,16396
2019-05-07T07:01:11.968Z,15576
2019-05-07T07:03:27.011Z,13144
2019-05-07T07:04:27.706Z,13548
2019-05-07T07:05:28.414Z,12636
2019-05-07T07:06:29.121Z,14732
2019-05-07T07:07:33.911Z,14992
2019-05-07T07:08:32.426Z,12968
2019-05-07T07:09:32.951Z,13424
2019-05-07T07:11:47.458Z,15008
2019-05-07T07:15:19.053Z,15264
2019-05-07T07:16:19.765Z,15256
2019-05-07T07:17:22.351Z,15128
2019-05-07T07:18:23.084Z,15168
2019-05-07T07:19:23.267Z,16680
2019-05-07T07:20:22.550Z,16548
2019-05-07T07:22:38.734Z,29728
2019-05-07T07:23:39.437Z,15516
2019-05-07T07:24:42.275Z,30080
2019-05-07T07:25:43.000Z,16420
2019-05-07T07:26:42.498Z,19360
2019-05-07T07:27:43.199Z,19232
2019-05-07T07:28:43.905Z,23648
2019-05-07T07:29:45.072Z,24544
2019-05-07T07:32:02.360Z,56128
2019-05-07T07:33:02.793Z,44288
2019-05-07T07:34:02.424Z,29472
2019-05-07T07:35:02.885Z,21376
2019-05-07T07:36:03.596Z,38624
2019-05-07T07:37:08.984Z,21600
2019-05-07T07:38:05.023Z,37568
2019-05-07T07:39:05.727Z,28064
2019-05-07T07:40:06.435Z,30368
2019-05-07T07:42:22.948Z,18156
2019-05-07T07:43:23.327Z,17688
2019-05-07T07:44:24.031Z,20352
2019-05-07T07:45:24.736Z,65888
2019-05-07T07:46:25.440Z,55712
2019-05-07T07:47:26.147Z,25696
2019-05-07T07:48:28.348Z,29440
2019-05-07T07:49:27.602Z,49344
2019-05-07T07:50:28.309Z,64256
2019-05-07T07:52:44.494Z,20352
2019-05-07T07:53:45.199Z,66368
2019-05-07T07:54:45.902Z,30240
2019-05-07T07:55:46.613Z,49952
2019-05-07T07:56:52.196Z,60448
2019-05-07T07:57:48.438Z,20576
2019-05-07T07:58:49.147Z,20032
2019-05-07T07:59:49.857Z,21984
2019-05-07T08:00:52.329Z,73760
2019-05-07T08:03:06.749Z,73888
2019-05-07T08:04:07.449Z,63424
2019-05-07T08:05:08.158Z,78240
2019-05-07T08:06:08.859Z,79392
2019-05-07T08:07:09.570Z,76928
2019-05-07T08:08:12.653Z,77888
2019-05-07T08:09:13.021Z,32736
2019-05-07T08:10:12.888Z,72576
2019-05-07T08:11:12.844Z,67712
2019-05-07T08:13:28.578Z,52416
2019-05-07T08:14:29.280Z,74976
2019-05-07T08:15:29.986Z,42400
2019-05-07T08:16:32.615Z,46688
2019-05-07T08:17:32.663Z,37536
2019-05-07T08:18:32.815Z,57632
2019-05-07T08:19:33.086Z,55136
2019-05-07T08:20:33.492Z,39200
2019-05-07T08:21:34.197Z,37984
2019-05-07T08:22:34.903Z,34720
2019-05-07T08:24:51.912Z,36768
2019-05-07T08:25:52.696Z,42112
2019-05-07T08:26:52.511Z,46816
2019-05-07T08:29:08.705Z,28448
2019-05-07T08:31:24.892Z,26208
2019-05-07T08:32:25.600Z,27008
2019-05-07T08:33:26.301Z,29120
2019-05-07T08:34:27.001Z,32352
2019-05-07T08:35:27.691Z,36192
2019-05-07T08:36:28.384Z,37888
2019-05-07T08:37:29.091Z,32608
2019-05-07T08:38:30.785Z,32896
2019-05-07T08:39:32.534Z,53920
2019-05-07T08:41:46.688Z,22816
2019-05-07T08:44:11.586Z,22080
2019-05-07T08:45:03.625Z,21952
2019-05-07T08:46:04.287Z,21504
2019-05-07T08:47:04.986Z,20608
2019-05-07T08:48:05.680Z,19296
2019-05-07T08:49:06.387Z,17544
2019-05-07T08:51:22.577Z,21024
2019-05-07T08:52:25.747Z,23968
2019-05-07T08:53:23.996Z,26400
2019-05-07T08:54:24.691Z,28608
2019-05-07T08:55:25.506Z,33696
2019-05-07T08:56:26.216Z,68672
2019-05-07T08:57:26.921Z,95264
2019-05-07T08:58:27.601Z,58208
2019-05-07T08:59:28.307Z,26720
2019-05-07T09:00:29.007Z,25760
2019-05-07T09:01:29.711Z,24768
2019-05-07T09:02:32.454Z,23232
2019-05-07T09:03:32.387Z,22720
2019-05-07T09:04:32.651Z,24224
2019-05-07T09:05:32.516Z,83232
2019-05-07T09:06:33.203Z,90176
2019-05-07T09:07:33.909Z,85696
2019-05-07T09:08:34.609Z,67136
2019-05-07T09:09:35.319Z,51360
2019-05-07T09:10:35.985Z,47072
2019-05-07T09:11:36.695Z,87232
2019-05-07T09:12:37.403Z,82816
2019-05-07T09:13:38.101Z,95392
2019-05-07T09:14:38.810Z,105216
2019-05-07T09:15:39.512Z,108000
2019-05-07T09:16:42.404Z,105472
2019-05-07T09:17:42.347Z,76512
2019-05-07T09:18:42.936Z,101280
2019-05-07T09:19:50.887Z,37536
2019-05-07T09:20:44.345Z,43776
2019-05-07T09:21:45.052Z,31104
2019-05-07T09:22:45.762Z,27904
2019-05-07T09:23:46.473Z,25920
2019-05-07T09:24:47.168Z,24704
2019-05-07T09:25:47.884Z,22720
2019-05-07T09:26:48.595Z,20064
2019-05-07T09:27:49.296Z,19840
2019-05-07T09:28:52.269Z,22080
2019-05-07T09:29:52.001Z,22528
2019-05-07T09:30:52.434Z,20064
2019-05-07T09:31:52.590Z,19264
2019-05-07T09:32:52.807Z,19680
2019-05-07T09:33:53.515Z,21056
2019-05-07T09:36:09.709Z,26208
2019-05-07T09:37:12.297Z,27296
2019-05-07T09:38:12.194Z,28832
2019-05-07T09:40:27.308Z,32064
2019-05-07T09:41:28.016Z,35616
2019-05-07T09:42:28.720Z,37024
2019-05-07T09:43:29.419Z,109056
2019-05-07T09:44:32.135Z,73344
2019-05-07T09:45:32.660Z,35584
2019-05-07T09:46:32.548Z,35040
2019-05-07T09:47:32.606Z,35168
2019-05-07T09:48:33.856Z,32736
2019-05-07T09:49:33.614Z,30944
2019-05-07T09:51:51.805Z,19200
2019-05-07T09:52:51.865Z,15464
2019-05-07T09:53:52.005Z,12292
2019-05-07T09:54:52.378Z,10056
2019-05-07T09:55:52.591Z,8588
2019-05-07T09:56:53.295Z,7576
2019-05-07T09:57:54.006Z,6720
2019-05-07T09:58:54.698Z,6076
2019-05-07T09:59:55.372Z,5640
2019-05-07T10:02:12.282Z,4992
2019-05-07T10:03:12.778Z,5068
2019-05-07T10:04:12.968Z,5520
2019-05-07T10:05:13.674Z,6288
2019-05-07T10:07:32.214Z,7652
2019-05-07T10:09:46.048Z,7308
2019-05-07T10:12:02.772Z,7644
2019-05-07T10:13:02.933Z,7844
2019-05-07T10:14:03.638Z,7856
2019-05-07T10:15:04.339Z,7684
2019-05-07T10:16:07.655Z,7376
2019-05-07T10:18:22.870Z,7388
2019-05-07T10:19:22.899Z,7916
2019-05-07T10:20:23.605Z,8808
2019-05-07T10:21:24.305Z,9832
2019-05-07T10:22:25.009Z,11036
2019-05-07T10:23:25.718Z,12484
2019-05-07T10:25:42.007Z,16384
2019-05-07T10:26:42.946Z,18880
2019-05-07T10:27:43.377Z,21312
2019-05-07T10:28:44.074Z,23808
2019-05-07T10:29:44.786Z,26496
2019-05-07T10:30:45.489Z,29856
2019-05-07T10:31:46.444Z,33376
2019-05-07T10:32:47.116Z,58624
2019-05-07T10:33:47.820Z,83808
2019-05-07T10:34:48.521Z,77632
2019-05-07T10:37:04.711Z,74048
2019-05-07T10:38:05.413Z,61408
2019-05-07T10:39:06.155Z,53152
2019-05-07T10:40:06.853Z,43616
2019-05-07T10:41:07.551Z,84128
2019-05-07T10:42:08.266Z,102080
2019-05-07T10:43:08.969Z,104416
2019-05-07T10:45:25.169Z,100896
2019-05-07T10:46:25.874Z,20960
2019-05-07T10:47:26.583Z,17888
2019-05-07T10:48:27.612Z,15524
2019-05-07T10:49:28.222Z,14484
2019-05-07T10:50:36.327Z,14748
2019-05-07T10:52:45.189Z,17456
2019-05-07T10:53:45.892Z,18240
2019-05-07T10:54:56.692Z,20096
2019-05-07T10:55:47.291Z,22464
2019-05-07T10:56:47.998Z,25312
2019-05-07T10:57:48.678Z,28704
2019-05-07T10:58:49.389Z,30816
2019-05-07T10:59:52.247Z,30560
2019-05-07T11:02:06.281Z,25216
2019-05-07T11:03:06.970Z,24096
2019-05-07T11:04:07.677Z,24096
2019-05-07T11:05:08.385Z,25376
2019-05-07T11:06:09.139Z,27520
2019-05-07T11:08:25.784Z,31040
2019-05-07T11:09:25.982Z,32064
2019-05-07T11:10:26.665Z,32544
2019-05-07T11:11:27.372Z,32192
2019-05-07T11:12:28.080Z,30944
2019-05-07T11:13:28.777Z,29984
2019-05-07T11:14:29.477Z,29920
2019-05-07T11:15:32.412Z,30464
2019-05-07T11:16:32.435Z,31200
2019-05-07T11:18:48.031Z,33536
2019-05-07T11:19:48.725Z,34912
2019-05-07T11:20:51.165Z,35488
2019-05-07T11:24:22.134Z,33248
2019-05-07T11:25:22.819Z,32256
2019-05-07T11:27:39.012Z,31552
2019-05-07T11:28:39.719Z,31680
2019-05-07T11:29:40.424Z,31872
2019-05-07T11:30:42.528Z,31648
2019-05-07T11:31:42.396Z,30752
2019-05-07T11:32:43.025Z,29632
2019-05-07T11:33:43.240Z,28704
2019-05-07T11:35:59.442Z,28352
2019-05-07T11:37:02.127Z,28736
2019-05-07T11:38:11.005Z,29248
2019-05-07T11:39:01.830Z,30016
2019-05-07T11:40:03.235Z,31488
2019-05-07T11:42:19.105Z,37856
2019-05-07T11:43:22.111Z,44640
2019-05-07T11:44:22.883Z,47200
2019-05-07T11:45:22.751Z,138240
2019-05-07T11:46:22.265Z,120704
2019-05-07T11:47:22.651Z,61152
2019-05-07T11:48:23.317Z,84512
2019-05-07T11:49:24.062Z,115840
2019-05-07T11:50:24.745Z,120864
2019-05-07T11:52:42.531Z,75776
2019-05-07T11:53:41.992Z,56896
2019-05-07T11:54:42.578Z,67168
2019-05-07T11:55:43.285Z,59296
2019-05-07T11:56:43.991Z,65440
2019-05-07T11:57:44.697Z,97024
2019-05-07T11:58:45.392Z,90016
2019-05-07T12:01:03.595Z,94432
2019-05-07T12:02:02.892Z,120928
2019-05-07T12:03:03.510Z,58720
2019-05-07T12:04:04.174Z,59904
2019-05-07T12:05:04.924Z,53728
2019-05-07T12:06:05.621Z,71040
2019-05-07T12:07:06.335Z,66208
2019-05-07T12:09:22.525Z,72864
2019-05-07T12:10:23.239Z,118560
2019-05-07T12:11:23.940Z,122336
2019-05-07T12:12:24.640Z,70976
2019-05-07T12:13:25.343Z,62368
2019-05-07T12:14:30.869Z,109632
2019-05-07T12:15:26.803Z,111328
2019-05-07T12:17:43.003Z,96000
2019-05-07T12:18:43.713Z,96544
2019-05-07T12:19:44.436Z,96576
2019-05-07T12:20:45.135Z,77888
2019-05-07T12:21:45.840Z,98592
2019-05-07T12:22:46.548Z,105856
2019-05-07T12:23:47.257Z,110016
2019-05-07T12:26:03.496Z,111136
2019-05-07T12:27:04.207Z,108768
2019-05-07T12:28:04.918Z,58880
2019-05-07T12:29:05.623Z,104832
2019-05-07T12:30:06.500Z,30400
2019-05-07T12:31:07.177Z,59712
2019-05-07T12:32:07.900Z,48864
2019-05-07T12:34:24.107Z,56736
2019-05-07T12:35:24.820Z,65568
2019-05-07T12:36:25.531Z,93600
2019-05-07T12:37:26.238Z,61056
2019-05-07T12:38:26.941Z,60992
2019-05-07T12:39:27.650Z,54784
2019-05-07T12:40:28.355Z,95168
2019-05-07T12:41:29.065Z,80000
2019-05-07T12:43:45.235Z,98464
2019-05-07T12:44:45.941Z,104576
2019-05-07T12:45:46.624Z,41952
2019-05-07T12:46:47.334Z,97152
2019-05-07T12:47:48.072Z,90880
2019-05-07T12:48:48.749Z,100448
2019-05-07T12:52:22.629Z,28512
2019-05-07T12:53:22.442Z,23232
2019-05-07T12:55:37.348Z,22240
2019-05-07T12:56:38.058Z,23936
2019-05-07T12:57:38.763Z,27072
2019-05-07T12:58:39.472Z,26528
2019-05-07T12:59:40.182Z,27552
2019-05-07T13:00:42.547Z,27776
2019-05-07T13:01:42.198Z,28032
2019-05-07T13:02:44.324Z,28352
2019-05-07T13:03:43.007Z,27840
2019-05-07T13:04:43.713Z,27776
2019-05-07T13:06:59.925Z,25856
2019-05-07T13:08:00.637Z,24608
2019-05-07T13:09:01.558Z,23712
2019-05-07T13:10:02.595Z,23392
2019-05-07T13:11:03.301Z,23424
2019-05-07T13:12:03.663Z,23136
2019-05-07T13:13:04.369Z,23936
2019-05-07T13:14:05.074Z,26528
2019-05-07T13:16:22.100Z,29888
2019-05-07T13:17:22.428Z,29632
2019-05-07T13:18:23.245Z,28224
2019-05-07T13:19:23.861Z,27616
2019-05-07T13:20:24.573Z,46464
2019-05-07T13:21:25.279Z,56160
2019-05-07T13:23:42.204Z,67872
2019-05-07T13:24:42.630Z,65056
2019-05-07T13:25:43.068Z,36576
2019-05-07T13:26:43.645Z,25248
2019-05-07T13:27:44.356Z,81824
2019-05-07T13:28:45.001Z,49856
2019-05-07T13:29:45.705Z,55936
2019-05-07T13:32:02.936Z,65984
2019-05-07T13:33:02.613Z,47872
2019-05-07T13:35:18.812Z,20320
2019-05-07T13:37:35.015Z,16608
2019-05-07T13:38:35.719Z,16824
2019-05-07T13:39:36.428Z,86048
2019-05-07T13:41:53.616Z,80992
2019-05-07T13:44:08.882Z,49632
2019-05-07T13:46:25.027Z,31168
2019-05-07T13:47:25.698Z,95872
2019-05-07T13:48:26.405Z,94048
2019-05-07T13:49:27.111Z,27968
2019-05-07T13:50:27.823Z,71392
2019-05-07T13:52:44.018Z,22144
2019-05-07T13:53:44.726Z,78016
2019-05-07T13:54:45.431Z,80768
2019-05-07T13:55:46.146Z,87104
2019-05-07T13:56:46.851Z,21952
2019-05-07T13:57:47.565Z,75296
2019-05-07T13:58:48.276Z,28992
2019-05-07T13:59:48.989Z,85888
2019-05-07T14:00:49.702Z,81120
2019-05-07T14:03:05.896Z,27456
2019-05-07T14:04:06.609Z,25568
2019-05-07T14:05:07.323Z,32288
2019-05-07T14:06:08.023Z,17904
2019-05-07T14:07:08.734Z,16804
2019-05-07T14:08:09.444Z,17176
2019-05-07T14:09:10.132Z,18080
2019-05-07T14:10:12.625Z,18720
2019-05-07T14:12:27.992Z,18016
2019-05-07T14:13:28.700Z,19680
2019-05-07T14:14:34.198Z,19776
2019-05-07T14:15:32.151Z,20704
2019-05-07T14:16:30.867Z,22144
2019-05-07T14:17:31.578Z,22656
2019-05-07T14:18:32.646Z,68960
2019-05-07T14:19:32.990Z,66304
2019-05-07T14:21:49.434Z,69056
2019-05-07T14:22:51.680Z,73920
2019-05-07T14:23:52.146Z,73312
2019-05-07T14:24:52.946Z,70848
2019-05-07T14:25:52.662Z,65312
2019-05-07T14:26:53.451Z,63520
2019-05-07T14:27:54.066Z,60512
2019-05-07T14:32:42.115Z,52160
2019-05-07T14:33:42.797Z,16156
2019-05-07T14:34:43.506Z,13560
2019-05-07T14:35:44.218Z,12824
2019-05-07T14:36:44.927Z,15104
2019-05-07T14:37:45.693Z,15972
2019-05-07T14:40:02.690Z,13216
2019-05-07T14:41:02.767Z,12780
2019-05-07T14:42:03.311Z,12368
2019-05-07T14:43:04.004Z,13120
2019-05-07T14:44:04.711Z,13504
2019-05-07T14:45:05.411Z,13560
2019-05-07T14:47:22.342Z,12624
2019-05-07T14:48:22.669Z,12804
2019-05-07T14:49:23.039Z,15704
2019-05-07T14:50:23.748Z,15836
2019-05-07T14:51:24.457Z,15780
2019-05-07T14:52:32.667Z,15716
2019-05-07T14:53:25.880Z,23424
2019-05-07T14:55:42.081Z,17104
2019-05-07T14:56:42.944Z,15564
2019-05-07T14:57:43.484Z,16220
2019-05-07T14:58:44.198Z,15260
2019-05-07T14:59:44.898Z,13316
2019-05-07T15:00:45.807Z,11868
2019-05-07T15:01:46.481Z,11176
2019-05-07T15:02:47.184Z,10556
2019-05-07T15:03:47.890Z,10264
2019-05-07T15:06:04.076Z,14444
2019-05-07T15:07:04.781Z,15872
2019-05-07T15:08:10.588Z,15020
2019-05-07T15:09:06.187Z,13524
2019-05-07T15:10:06.880Z,12020
2019-05-07T15:17:25.210Z,8580
2019-05-07T15:18:25.892Z,9796
2019-05-07T15:19:26.585Z,12228
2019-05-07T15:20:27.312Z,13636
2019-05-07T15:21:27.998Z,14172
2019-05-07T15:22:28.703Z,13484
2019-05-07T15:23:29.413Z,11472
2019-05-07T15:25:45.597Z,10288
2019-05-07T15:26:46.299Z,10936
2019-05-07T15:27:47.001Z,11152
2019-05-07T15:28:47.706Z,12308
2019-05-07T15:29:48.416Z,12472
2019-05-07T15:30:49.119Z,12712
2019-05-07T15:31:51.682Z,13032
2019-05-07T15:34:06.984Z,13616
2019-05-07T15:35:07.692Z,13732
2019-05-07T15:36:08.416Z,13636
2019-05-07T15:37:09.119Z,13284
2019-05-07T15:38:11.614Z,13044
2019-05-07T15:39:10.519Z,13072
2019-05-07T15:41:26.765Z,12392
2019-05-07T15:42:27.521Z,11692
2019-05-07T15:43:28.213Z,11204
2019-05-07T15:44:28.955Z,10928
2019-05-07T15:45:29.646Z,11040
2019-05-07T15:46:32.154Z,11412
2019-05-07T15:47:32.062Z,11524
2019-05-07T15:48:32.800Z,11640
2019-05-07T15:49:33.452Z,11932
2019-05-07T15:50:34.138Z,12468
2019-05-07T15:51:34.838Z,12868
2019-05-07T15:52:35.546Z,13080
2019-05-07T15:56:07.202Z,12404
2019-05-07T15:57:07.923Z,12312
2019-05-07T15:58:08.617Z,12264
2019-05-07T16:00:24.944Z,11504
2019-05-07T16:02:41.113Z,10080
2019-05-07T16:03:42.897Z,9276
2019-05-07T16:05:58.975Z,8132
2019-05-07T16:06:59.674Z,7892
2019-05-07T16:08:01.656Z,7716
2019-05-07T16:09:02.485Z,7572
2019-05-07T16:10:02.811Z,7444
2019-05-07T16:11:03.788Z,7352
2019-05-07T16:12:04.212Z,7260
2019-05-07T16:14:22.565Z,7224
2019-05-07T16:15:22.465Z,7284
2019-05-07T16:18:53.089Z,7012
2019-05-07T16:21:09.256Z,6560
2019-05-07T16:22:09.985Z,6372
2019-05-07T16:23:15.689Z,6312
2019-05-07T16:24:12.315Z,6340
2019-05-07T16:25:13.017Z,6416
2019-05-07T16:26:13.714Z,6516
2019-05-07T16:28:32.289Z,6732
2019-05-07T16:29:33.670Z,6892
2019-05-07T16:30:32.414Z,7172
2019-05-07T16:31:33.246Z,7552